< < Back
Terminal Aerodrome Forecast


Current Version              Previous Versions:   1  2  3  4  5  6  7  8  9  

Terminal Aerodrome Forecast

863
FTUS42 KCAE 262330
TAFCAE
TAF
KCAE 262330Z 2700/2724 12008KT P6SM SCT050
     FM270100 VRB03KT P6SM FEW250=



Latest METAR

926
SAUS80 KWBC 270400 CCA
MTRCAE
METAR KCAE 270356Z 08004KT 10SM CLR 26/21 A3010 RMK AO2 SLP190 T02610206
$


USA.gov is the U.S. government's official web portal to all federal, state and local government web resources and services.